createdAt,value
2023-09-05T00:01:55.438Z,14.18
2023-09-05T00:04:23.384Z,14.17
2023-09-05T00:06:51.172Z,14.16
2023-09-05T00:09:20.200Z,14.16
2023-09-05T00:11:48.391Z,14.14
2023-09-05T00:14:18.728Z,14.13
2023-09-05T00:16:47.850Z,14.10
2023-09-05T00:19:16.367Z,14.09
2023-09-05T00:21:44.190Z,14.05
2023-09-05T00:24:29.284Z,14.03
2023-09-05T00:26:57.427Z,14.02
2023-09-05T00:29:26.159Z,13.99
2023-09-05T00:31:55.932Z,13.99
2023-09-05T00:34:23.837Z,13.98
2023-09-05T00:36:53.649Z,13.97
2023-09-05T00:39:21.597Z,13.94
2023-09-05T00:41:49.663Z,13.92
2023-09-05T00:44:18.951Z,13.92
2023-09-05T00:46:47.763Z,13.91
2023-09-05T00:49:17.742Z,13.90
2023-09-05T00:51:51.777Z,13.91
2023-09-05T00:54:20.401Z,13.90
2023-09-05T00:56:49.842Z,13.91
2023-09-05T00:59:18.818Z,13.90
2023-09-05T01:01:46.813Z,13.89
2023-09-05T01:04:15.471Z,13.87
2023-09-05T01:06:55.116Z,13.85
2023-09-05T01:09:31.542Z,13.84
2023-09-05T01:12:00.327Z,13.83
2023-09-05T01:14:28.154Z,13.84
2023-09-05T01:17:02.180Z,13.87
2023-09-05T01:19:32.005Z,13.91
2023-09-05T01:22:15.510Z,13.95
2023-09-05T01:24:48.426Z,13.98
2023-09-05T01:27:18.671Z,14.00
2023-09-05T01:29:48.267Z,14.04
2023-09-05T01:32:17.133Z,14.06
2023-09-05T01:34:44.987Z,14.08
2023-09-05T01:37:15.392Z,14.08
2023-09-05T01:44:10.605Z,14.12
2023-09-05T01:46:39.428Z,14.12
2023-09-05T01:49:07.436Z,14.13
2023-09-05T01:51:35.878Z,14.12
2023-09-05T01:54:03.660Z,14.10
2023-09-05T01:56:31.547Z,14.12
2023-09-05T01:58:59.387Z,14.13
2023-09-05T02:01:29.059Z,14.14
2023-09-05T02:03:56.957Z,14.15
2023-09-05T02:06:24.779Z,14.15
2023-09-05T02:08:52.849Z,14.14
2023-09-05T02:11:20.792Z,14.16
2023-09-05T02:13:49.460Z,14.16
2023-09-05T02:16:20.129Z,14.16
2023-09-05T02:18:50.325Z,14.14
2023-09-05T02:21:18.590Z,14.13
2023-09-05T02:23:46.693Z,14.10
2023-09-05T02:26:15.220Z,14.09
2023-09-05T02:28:43.075Z,14.04
2023-09-05T02:31:10.993Z,13.99
2023-09-05T02:33:38.900Z,13.92
2023-09-05T02:36:16.487Z,13.84
2023-09-05T02:38:44.888Z,13.77
2023-09-05T02:41:14.000Z,13.72
2023-09-05T02:43:42.015Z,13.66
2023-09-05T02:46:11.137Z,13.60
2023-09-05T02:48:40.003Z,13.53
2023-09-05T02:51:09.323Z,13.49
2023-09-05T02:53:39.424Z,13.43
2023-09-05T02:56:07.610Z,13.38
2023-09-05T02:58:35.672Z,13.36
2023-09-05T03:01:05.309Z,13.32
2023-09-05T03:03:33.657Z,13.28
2023-09-05T03:06:10.069Z,13.24
2023-09-05T03:08:43.486Z,13.20
2023-09-05T03:11:11.697Z,13.17
2023-09-05T03:13:39.754Z,13.15
2023-09-05T03:16:07.960Z,13.13
2023-09-05T03:18:37.055Z,13.11
2023-09-05T03:21:05.546Z,13.12
2023-09-05T03:23:33.464Z,13.10
2023-09-05T03:26:03.217Z,13.07
2023-09-05T03:28:40.788Z,13.04
2023-09-05T03:31:11.417Z,13.02
2023-09-05T03:33:39.757Z,12.97
2023-09-05T03:36:10.217Z,12.94
2023-09-05T03:38:38.170Z,12.90
2023-09-05T03:41:07.394Z,12.86
2023-09-05T03:43:35.287Z,12.82
2023-09-05T03:46:03.206Z,12.80
2023-09-05T03:48:31.164Z,12.78
2023-09-05T03:50:59.074Z,12.77
2023-09-05T03:53:27.134Z,12.76
2023-09-05T03:55:56.457Z,12.77
2023-09-05T03:58:25.661Z,12.76
2023-09-05T04:00:58.449Z,12.72
2023-09-05T04:03:28.786Z,12.68
2023-09-05T04:05:56.981Z,12.66
2023-09-05T04:08:26.050Z,12.67
2023-09-05T04:10:58.360Z,12.66
2023-09-05T04:13:28.068Z,12.65
2023-09-05T04:15:56.549Z,12.65
2023-09-05T04:18:24.474Z,12.62
2023-09-05T04:20:58.907Z,12.61
2023-09-05T04:23:27.299Z,12.57
2023-09-05T04:26:00.993Z,12.54
2023-09-05T04:28:32.478Z,12.51
2023-09-05T04:31:04.084Z,12.47
2023-09-05T04:33:38.616Z,12.43
2023-09-05T04:36:09.119Z,12.42
2023-09-05T04:38:37.253Z,12.39
2023-09-05T04:41:07.182Z,12.38
2023-09-05T04:43:36.513Z,12.36
2023-09-05T04:46:06.930Z,12.34
2023-09-05T04:48:34.897Z,12.33
2023-09-05T04:51:04.977Z,12.31
2023-09-05T04:53:33.493Z,12.28
2023-09-05T04:56:03.109Z,12.30
2023-09-05T04:58:32.088Z,12.29
2023-09-05T05:01:04.515Z,12.27
2023-09-05T05:03:32.854Z,12.27
2023-09-05T05:06:01.116Z,12.26
2023-09-05T05:08:29.960Z,12.25
2023-09-05T05:10:57.991Z,12.26
2023-09-05T05:13:25.851Z,12.25
2023-09-05T05:15:53.682Z,12.26
2023-09-05T05:18:22.856Z,12.26
2023-09-05T05:20:50.788Z,12.27
2023-09-05T05:23:20.548Z,12.27
2023-09-05T05:25:48.633Z,12.28
2023-09-05T05:28:16.559Z,12.30
2023-09-05T05:30:44.462Z,12.33
2023-09-05T05:33:12.345Z,12.36
2023-09-05T05:35:41.557Z,12.36
2023-09-05T05:38:09.360Z,12.39
2023-09-05T05:40:37.223Z,12.39
2023-09-05T05:43:05.457Z,12.42
2023-09-05T05:45:33.318Z,12.43
2023-09-05T05:48:01.231Z,12.46
2023-09-05T05:50:29.164Z,12.48
2023-09-05T05:52:58.345Z,12.54
2023-09-05T05:55:26.214Z,12.56
2023-09-05T05:57:54.075Z,12.60
2023-09-05T06:00:22.154Z,12.64
2023-09-05T06:02:50.094Z,12.69
2023-09-05T06:05:18.051Z,12.74
2023-09-05T06:07:45.870Z,12.78
2023-09-05T06:10:15.617Z,12.84
2023-09-05T06:12:43.529Z,12.86
2023-09-05T06:15:12.324Z,12.91
2023-09-05T06:17:40.243Z,12.95
2023-09-05T06:20:10.705Z,13.00
2023-09-05T06:22:40.156Z,13.05
2023-09-05T06:25:08.590Z,13.09
2023-09-05T06:27:37.821Z,13.14
2023-09-05T06:30:06.322Z,13.21
2023-09-05T06:32:34.241Z,13.33
2023-09-05T06:35:02.093Z,13.41
2023-09-05T06:37:32.724Z,13.48
2023-09-05T06:40:00.708Z,13.57
2023-09-05T06:42:28.735Z,13.63
2023-09-05T06:44:57.860Z,13.71
2023-09-05T06:47:25.760Z,13.74
2023-09-05T06:49:53.635Z,13.80
2023-09-05T06:52:21.612Z,13.90
2023-09-05T06:54:50.022Z,13.94
2023-09-05T06:57:18.700Z,14.01
2023-09-05T06:59:46.537Z,14.09
2023-09-05T07:02:15.755Z,14.16
2023-09-05T07:04:43.604Z,14.22
2023-09-05T07:07:11.446Z,14.31
2023-09-05T07:09:39.389Z,14.40
2023-09-05T07:12:09.187Z,14.50
2023-09-05T07:14:37.169Z,14.61
2023-09-05T07:17:07.386Z,14.72
2023-09-05T07:19:38.143Z,14.83
2023-09-05T07:22:06.227Z,14.93
2023-09-05T07:24:34.538Z,15.06
2023-09-05T07:27:02.525Z,15.19
2023-09-05T07:29:32.386Z,15.32
2023-09-05T07:32:00.271Z,15.46
2023-09-05T07:34:30.782Z,15.66
2023-09-05T07:37:00.073Z,15.84
2023-09-05T07:39:27.885Z,15.97
2023-09-05T07:41:55.718Z,16.15
2023-09-05T07:44:23.650Z,16.29
2023-09-05T07:46:51.475Z,16.43
2023-09-05T07:49:20.547Z,16.59
2023-09-05T07:51:49.237Z,16.77
2023-09-05T07:54:20.312Z,16.87
2023-09-05T07:56:48.187Z,16.99
2023-09-05T07:59:16.119Z,17.09
2023-09-05T08:01:43.924Z,17.22
2023-09-05T08:04:11.774Z,17.34
2023-09-05T08:06:39.752Z,17.50
2023-09-05T08:09:07.672Z,17.60
2023-09-05T08:11:36.942Z,17.78
2023-09-05T08:14:04.798Z,17.98
2023-09-05T08:16:32.687Z,18.12
2023-09-05T08:19:00.569Z,18.26
2023-09-05T08:21:28.637Z,18.34
2023-09-05T08:23:56.501Z,18.43
2023-09-05T08:26:24.340Z,18.53
2023-09-05T08:28:53.734Z,18.64
2023-09-05T08:31:22.754Z,18.76
2023-09-05T08:33:51.300Z,18.93
2023-09-05T08:36:19.148Z,19.11
2023-09-05T08:38:47.061Z,19.23
2023-09-05T08:41:14.910Z,19.36
2023-09-05T08:43:43.111Z,19.45
2023-09-05T08:46:13.118Z,19.53
2023-09-05T08:48:54.475Z,19.62
2023-09-05T08:51:25.072Z,19.76
2023-09-05T08:53:58.585Z,19.86
2023-09-05T08:56:27.443Z,19.98
2023-09-05T08:58:57.375Z,20.08
2023-09-05T09:01:28.567Z,20.19
2023-09-05T09:03:57.112Z,20.28
2023-09-05T09:06:25.643Z,20.42
2023-09-05T09:08:54.961Z,20.55
2023-09-05T09:11:23.826Z,20.63
2023-09-05T09:13:59.414Z,20.74
2023-09-05T09:16:30.494Z,20.84
2023-09-05T09:19:04.122Z,20.96
2023-09-05T09:21:33.246Z,21.07
2023-09-05T09:24:01.759Z,21.14
2023-09-05T09:26:29.643Z,21.21
2023-09-05T09:28:57.725Z,21.27
2023-09-05T09:31:28.462Z,21.35
2023-09-05T09:33:58.303Z,21.43
2023-09-05T09:36:35.333Z,21.50
2023-09-05T09:39:08.923Z,21.57
2023-09-05T09:41:43.131Z,21.64
2023-09-05T09:44:11.527Z,21.72
2023-09-05T09:46:41.344Z,21.79
2023-09-05T09:49:11.555Z,21.86
2023-09-05T09:51:41.606Z,21.93
2023-09-05T09:54:12.232Z,22.04
2023-09-05T09:56:42.889Z,22.13
2023-09-05T09:59:13.136Z,22.24
2023-09-05T10:01:43.601Z,22.33
2023-09-05T10:04:11.742Z,22.44
2023-09-05T10:06:40.250Z,22.52
2023-09-05T10:09:09.222Z,22.60
2023-09-05T10:11:37.767Z,22.70
2023-09-05T10:14:06.383Z,22.82
2023-09-05T10:16:34.900Z,22.92
2023-09-05T10:19:05.587Z,23.04
2023-09-05T10:21:35.128Z,23.13
2023-09-05T10:24:03.541Z,23.23
2023-09-05T10:26:31.799Z,23.31
2023-09-05T10:29:00.104Z,23.39
2023-09-05T10:31:28.006Z,23.53
2023-09-05T10:33:55.913Z,23.62
2023-09-05T10:36:43.190Z,23.75
2023-09-05T10:39:25.520Z,23.88
2023-09-05T10:41:53.644Z,23.98
2023-09-05T10:44:24.097Z,24.07
2023-09-05T10:46:54.358Z,24.14
2023-09-05T10:49:24.287Z,24.19
2023-09-05T10:52:19.572Z,24.30
2023-09-05T10:54:47.855Z,24.43
2023-09-05T10:57:35.326Z,24.55
2023-09-05T11:00:16.154Z,24.64
2023-09-05T11:02:44.801Z,24.73
2023-09-05T11:05:13.580Z,24.84
2023-09-05T11:07:44.934Z,24.96
2023-09-05T11:10:13.817Z,25.08
2023-09-05T11:12:41.723Z,25.16
2023-09-05T11:15:10.768Z,25.25
2023-09-05T11:17:41.716Z,25.31
2023-09-05T11:20:13.277Z,25.41
2023-09-05T11:22:42.886Z,25.51
2023-09-05T11:25:12.177Z,25.61
2023-09-05T11:27:41.706Z,25.69
2023-09-05T11:30:11.144Z,25.72
2023-09-05T11:32:40.881Z,25.79
2023-09-05T11:35:11.391Z,25.80
2023-09-05T11:37:40.319Z,25.85
2023-09-05T11:40:16.092Z,25.95
2023-09-05T11:42:44.018Z,26.00
2023-09-05T11:45:19.415Z,26.06
2023-09-05T11:47:48.923Z,26.11
2023-09-05T11:50:18.396Z,26.17
2023-09-05T11:52:46.664Z,26.23
2023-09-05T11:55:16.976Z,26.31
2023-09-05T11:57:45.284Z,26.35
2023-09-05T12:00:16.308Z,26.44
2023-09-05T12:02:44.361Z,26.57
2023-09-05T12:05:13.092Z,26.63
2023-09-05T12:07:41.139Z,26.73
2023-09-05T12:10:11.240Z,26.83
2023-09-05T12:12:40.554Z,26.93
2023-09-05T12:15:09.127Z,26.99
2023-09-05T12:17:38.192Z,27.07
2023-09-05T12:20:11.200Z,27.10
2023-09-05T12:22:39.037Z,27.15
2023-09-05T12:25:13.649Z,27.22
2023-09-05T12:27:46.613Z,27.30
2023-09-05T12:30:31.393Z,27.39
2023-09-05T12:33:00.434Z,27.45
2023-09-05T12:35:29.960Z,27.54
2023-09-05T12:38:01.578Z,27.59
2023-09-05T12:40:30.132Z,27.65
2023-09-05T12:42:59.354Z,27.69
2023-09-05T12:45:27.378Z,27.76
2023-09-05T12:47:55.557Z,27.85
2023-09-05T12:50:29.958Z,27.96
2023-09-05T12:52:57.924Z,28.08
2023-09-05T12:55:25.851Z,28.14
2023-09-05T12:57:55.046Z,28.20
2023-09-05T13:00:24.548Z,28.26
2023-09-05T13:02:52.638Z,28.27
2023-09-05T13:05:20.501Z,28.38
2023-09-05T13:07:48.465Z,28.44
2023-09-05T13:10:16.394Z,28.50
2023-09-05T13:12:47.400Z,28.59
2023-09-05T13:15:15.302Z,28.63
2023-09-05T13:17:47.093Z,28.70
2023-09-05T13:20:15.829Z,28.75
2023-09-05T13:22:49.181Z,28.85
2023-09-05T13:25:17.928Z,28.89
2023-09-05T13:27:45.778Z,28.96
2023-09-05T13:30:15.502Z,29.05
2023-09-05T13:32:44.744Z,29.14
2023-09-05T13:35:13.054Z,29.24
2023-09-05T13:37:41.037Z,29.33
2023-09-05T13:40:09.899Z,29.39
2023-09-05T13:42:38.026Z,29.50
2023-09-05T13:45:07.134Z,29.59
2023-09-05T13:47:38.478Z,29.66
2023-09-05T13:50:10.383Z,29.76
2023-09-05T13:52:38.260Z,29.89
2023-09-05T13:55:06.687Z,29.99
2023-09-05T13:57:34.710Z,30.04
2023-09-05T14:00:04.739Z,30.11
2023-09-05T14:02:39.914Z,30.21
2023-09-05T14:05:11.496Z,30.29
2023-09-05T14:07:41.411Z,30.31
2023-09-05T14:10:11.715Z,30.33
2023-09-05T14:12:39.712Z,30.42
2023-09-05T14:15:08.768Z,30.51
2023-09-05T14:17:38.698Z,30.66
2023-09-05T14:20:08.064Z,30.81
2023-09-05T14:22:37.263Z,30.87
2023-09-05T14:25:05.635Z,30.96
2023-09-05T14:27:33.684Z,31.03
2023-09-05T14:30:01.544Z,31.10
2023-09-05T14:32:29.429Z,31.13
2023-09-05T14:34:57.304Z,31.12
2023-09-05T14:37:26.848Z,31.04
2023-09-05T14:39:56.570Z,30.93
2023-09-05T14:42:24.723Z,30.91
2023-09-05T14:44:52.698Z,30.89
2023-09-05T14:47:20.955Z,30.83
2023-09-05T14:49:48.797Z,30.67
2023-09-05T14:52:20.452Z,30.54
2023-09-05T14:54:48.701Z,30.42
2023-09-05T14:57:20.308Z,30.31
2023-09-05T14:59:48.207Z,30.17
2023-09-05T15:02:16.077Z,30.12
2023-09-05T15:04:44.328Z,30.09
2023-09-05T15:07:12.284Z,30.04
2023-09-05T15:09:41.512Z,30.07
2023-09-05T15:12:09.702Z,30.04
2023-09-05T15:14:39.066Z,29.92
2023-09-05T15:17:07.287Z,29.81
2023-09-05T15:19:36.232Z,29.65
2023-09-05T15:22:04.889Z,29.58
2023-09-05T15:24:33.205Z,29.49
2023-09-05T15:27:02.679Z,29.40
2023-09-05T15:29:30.504Z,29.25
2023-09-05T15:31:59.787Z,29.15
2023-09-05T15:34:30.733Z,29.02
2023-09-05T15:36:58.963Z,28.86
2023-09-05T15:39:26.925Z,28.77
2023-09-05T15:41:54.798Z,28.65
2023-09-05T15:44:22.780Z,28.50
2023-09-05T15:46:52.566Z,28.32
2023-09-05T15:49:21.834Z,28.15
2023-09-05T15:51:50.083Z,27.95
2023-09-05T15:54:18.127Z,27.76
2023-09-05T15:56:46.051Z,27.64
2023-09-05T15:59:15.424Z,27.50
2023-09-05T16:01:43.352Z,27.37
2023-09-05T16:04:11.327Z,27.25
2023-09-05T16:06:40.696Z,27.10
2023-09-05T16:09:08.759Z,26.96
2023-09-05T16:11:37.060Z,26.84
2023-09-05T16:14:06.142Z,26.72
2023-09-05T16:16:34.830Z,26.61
2023-09-05T16:19:02.834Z,26.50
2023-09-05T16:21:30.977Z,26.39
2023-09-05T16:24:00.225Z,26.30
2023-09-05T16:26:30.893Z,26.22
2023-09-05T16:28:58.864Z,26.14
2023-09-05T16:31:38.305Z,26.07
2023-09-05T16:34:09.279Z,25.95
2023-09-05T16:36:38.102Z,25.83
2023-09-05T16:39:08.065Z,25.73
2023-09-05T16:41:36.117Z,25.62
2023-09-05T16:44:04.043Z,25.55
2023-09-05T16:46:32.210Z,25.51
2023-09-05T16:49:00.371Z,25.43
2023-09-05T16:51:28.304Z,25.34
2023-09-05T16:53:56.169Z,25.23
2023-09-05T16:56:25.371Z,25.14
2023-09-05T16:58:53.318Z,25.05
2023-09-05T17:01:22.356Z,24.96
2023-09-05T17:03:52.463Z,24.84
2023-09-05T17:06:20.540Z,24.72
2023-09-05T17:08:48.452Z,24.60
2023-09-05T17:11:16.329Z,24.51
2023-09-05T17:13:45.518Z,24.41
2023-09-05T17:16:13.394Z,24.32
2023-09-05T17:18:42.654Z,24.23
2023-09-05T17:21:10.652Z,24.18
2023-09-05T17:23:39.966Z,24.11
2023-09-05T17:26:07.992Z,24.01
2023-09-05T17:28:36.572Z,23.89
2023-09-05T17:31:07.082Z,23.79
2023-09-05T17:33:35.010Z,23.66
2023-09-05T17:36:03.458Z,23.53
2023-09-05T17:38:40.533Z,23.40
2023-09-05T17:41:08.964Z,23.29
2023-09-05T17:43:38.469Z,23.16
2023-09-05T17:46:08.725Z,23.04
2023-09-05T17:48:36.934Z,22.91
2023-09-05T17:51:05.062Z,22.80
2023-09-05T17:53:34.048Z,22.68
2023-09-05T17:56:01.904Z,22.55
2023-09-05T17:58:29.976Z,22.46
2023-09-05T18:00:58.098Z,22.35
2023-09-05T18:03:27.519Z,22.24
2023-09-05T18:05:55.437Z,22.14
2023-09-05T18:08:23.232Z,22.06
2023-09-05T18:10:51.049Z,21.93
2023-09-05T18:13:18.923Z,21.86
2023-09-05T18:15:47.176Z,21.74
2023-09-05T18:18:15.396Z,21.65
2023-09-05T18:20:44.816Z,21.53
2023-09-05T18:23:12.764Z,21.44
2023-09-05T18:25:40.612Z,21.33
2023-09-05T18:28:08.447Z,21.22
2023-09-05T18:30:36.469Z,21.13
2023-09-05T18:33:04.577Z,21.02
2023-09-05T18:35:32.396Z,20.93
2023-09-05T18:38:01.856Z,20.85
2023-09-05T18:40:29.769Z,20.79
2023-09-05T18:42:57.605Z,20.73
2023-09-05T18:45:25.554Z,20.65
2023-09-05T18:47:53.613Z,20.56
2023-09-05T18:50:21.510Z,20.47
2023-09-05T18:52:51.737Z,20.39
2023-09-05T18:55:21.032Z,20.32
2023-09-05T18:57:48.925Z,20.25
2023-09-05T19:00:17.545Z,20.19
2023-09-05T19:02:45.956Z,20.13
2023-09-05T19:05:16.311Z,20.06
2023-09-05T19:07:44.198Z,19.98
2023-09-05T19:10:12.111Z,19.90
2023-09-05T19:12:41.316Z,19.83
2023-09-05T19:15:09.972Z,19.76
2023-09-05T19:17:37.837Z,19.68
2023-09-05T19:20:06.345Z,19.61
2023-09-05T19:22:34.157Z,19.54
2023-09-05T19:25:02.265Z,19.47
2023-09-05T19:27:30.180Z,19.42
2023-09-05T19:29:59.483Z,19.38
2023-09-05T19:32:27.321Z,19.33
2023-09-05T19:34:55.239Z,19.28
2023-09-05T19:37:23.087Z,19.22
2023-09-05T19:39:51.227Z,19.16
2023-09-05T19:42:19.669Z,19.11
2023-09-05T19:44:47.600Z,19.04
2023-09-05T19:47:16.810Z,18.99
2023-09-05T19:49:44.816Z,18.93
2023-09-05T19:52:13.168Z,18.87
2023-09-05T19:54:41.105Z,18.84
2023-09-05T19:57:09.915Z,18.78
2023-09-05T19:59:37.828Z,18.73
2023-09-05T20:02:06.766Z,18.66
2023-09-05T20:04:36.034Z,18.60
2023-09-05T20:07:04.295Z,18.55
2023-09-05T20:09:35.066Z,18.49
2023-09-05T20:12:03.148Z,18.43
2023-09-05T20:14:31.471Z,18.37
2023-09-05T20:16:59.850Z,18.30
2023-09-05T20:19:27.705Z,18.26
2023-09-05T20:21:57.441Z,18.20
2023-09-05T20:24:25.373Z,18.15
2023-09-05T20:26:53.195Z,18.11
2023-09-05T20:29:21.029Z,18.05
2023-09-05T20:31:48.972Z,18.00
2023-09-05T20:34:17.406Z,17.97
2023-09-05T20:36:45.317Z,17.92
2023-09-05T20:39:14.604Z,17.87
2023-09-05T20:41:42.419Z,17.83
2023-09-05T20:44:10.393Z,17.77
2023-09-05T20:46:38.420Z,17.74
2023-09-05T20:49:06.475Z,17.71
2023-09-05T20:51:35.501Z,17.65
2023-09-05T20:54:03.398Z,17.62
2023-09-05T20:56:33.023Z,17.58
2023-09-05T20:59:00.939Z,17.52
2023-09-05T21:01:30.432Z,17.48
2023-09-05T21:03:58.754Z,17.44
2023-09-05T21:06:26.742Z,17.38
2023-09-05T21:08:54.715Z,17.34
2023-09-05T21:11:22.629Z,17.32
2023-09-05T21:13:51.851Z,17.28
2023-09-05T21:16:19.844Z,17.24
2023-09-05T21:18:48.240Z,17.20
2023-09-05T21:21:16.092Z,17.16
2023-09-05T21:23:44.015Z,17.13
2023-09-05T21:26:11.852Z,17.11
2023-09-05T21:28:39.717Z,17.06
2023-09-05T21:31:09.048Z,17.02
2023-09-05T21:33:37.157Z,17.00
2023-09-05T21:36:05.328Z,16.96
2023-09-05T21:38:33.453Z,16.93
2023-09-05T21:41:01.368Z,16.89
2023-09-05T21:43:29.285Z,16.84
2023-09-05T21:45:57.517Z,16.81
2023-09-05T21:48:27.032Z,16.77
2023-09-05T21:50:55.056Z,16.72
2023-09-05T21:53:22.896Z,16.71
2023-09-05T21:55:50.754Z,16.68
2023-09-05T21:58:18.559Z,16.65
2023-09-05T22:00:47.949Z,16.63
2023-09-05T22:06:36.040Z,16.55
2023-09-05T22:09:04.438Z,16.52
2023-09-05T22:11:32.366Z,16.50
2023-09-05T22:14:00.223Z,16.46
2023-09-05T22:16:29.622Z,16.43
2023-09-05T22:19:17.437Z,16.39
2023-09-05T22:21:46.735Z,16.36
2023-09-05T22:24:14.628Z,16.33
2023-09-05T22:26:43.040Z,16.30
2023-09-05T22:29:10.915Z,16.28
2023-09-05T22:31:39.566Z,16.26
2023-09-05T22:34:07.504Z,16.24
2023-09-05T22:36:35.426Z,16.21
2023-09-05T22:39:08.462Z,16.19
2023-09-05T22:41:36.309Z,16.15
2023-09-05T22:44:04.624Z,16.13
2023-09-05T22:46:32.502Z,16.07
2023-09-05T22:49:00.398Z,16.05
2023-09-05T22:51:28.507Z,16.01
2023-09-05T22:53:56.406Z,16.00
2023-09-05T22:56:25.877Z,15.97
2023-09-05T22:58:54.278Z,15.95
2023-09-05T23:01:22.689Z,15.94
2023-09-05T23:03:51.330Z,15.90
2023-09-05T23:06:19.524Z,15.89
2023-09-05T23:08:48.832Z,15.87
2023-09-05T23:11:16.767Z,15.84
2023-09-05T23:13:46.434Z,15.82
2023-09-05T23:16:14.422Z,15.80
2023-09-05T23:18:43.671Z,15.78
2023-09-05T23:21:12.299Z,15.72
2023-09-05T23:23:40.271Z,15.70
2023-09-05T23:26:10.255Z,15.67
2023-09-05T23:28:38.396Z,15.63
2023-09-05T23:31:08.085Z,15.60
2023-09-05T23:33:37.220Z,15.58
2023-09-05T23:36:05.292Z,15.54
2023-09-05T23:38:33.247Z,15.51
2023-09-05T23:41:01.049Z,15.46
2023-09-05T23:43:28.929Z,15.42
2023-09-05T23:45:57.903Z,15.39
2023-09-05T23:48:28.775Z,15.36
2023-09-05T23:50:57.248Z,15.35
2023-09-05T23:53:25.102Z,15.30
2023-09-05T23:55:54.003Z,15.27
2023-09-05T23:58:23.252Z,15.24
